KBIL/BIL METAR and TAF weather

Enter ICAO airport designator
Station Type Date Time Source
KBIL METAR 2018/07/20 13:53 UTC NOAA

KBIL 201353Z 05003KT 10SM CLR 19/11 A3005 RMK AO2 SLP140 T01940111


Station Type Date Time Source
KBIL Decoded METAR 2018/07/20 13:53 UTC NOAA

LOGAN INTERNATIONAL AIRPORT, MT, United States (KBIL) 45-49N 108-33W 1091M
Jul 20, 2018 - 09:53 AM EDT / 2018.07.20 1353 UTC
Wind: from the NE (050 degrees) at 3 MPH (3 KT):0
Visibility: 10 mile(s):0
Sky conditions: clear
Temperature: 66.9 F (19.4 C)
Dew Point: 52.0 F (11.1 C)
Relative Humidity: 58%
Pressure (altimeter): 30.05 in. Hg (1017 hPa)
ob: KBIL 201353Z 05003KT 10SM CLR 19/11 A3005 RMK AO2 SLP140 T01940111
cycle: 14

Station Type Date Time Source
KBIL TAF 2018/07/20 12:27 UTC NOAA

TAF KBIL 201124Z 2012/2112 03006KT P6SM FEW080
FM201500 20008KT P6SM SKC
FM202000 11008KT P6SM FEW100


Example: see airport list